Terminal Aerodrome Forecast
Issued by NWS

Home | Current Version | Previous Version | Text Only | Print | Product List | Glossary On
Versions: 1 2 3 4 5 6 7 8 9 10 11 12 13
000
FTUS44 KLZK 202340
TAFBPK
TAF
KBPK 202340Z 2100/2124 15008KT P6SM SCT100 BKN250
     FM211000 15008KT P6SM SCT060 BKN100
     FM211500 16010G18KT P6SM BKN025 BKN050
     FM211900 17010G18KT P6SM SCT030 BKN060=

USA.gov is the U.S. government's official web portal to all federal, state and local government web resources and services.